Terminal Aerodrome Forecast
Issued by NWS Jackson, KY

Home | Current Version | Previous Version | Text Only | Print | Product List | Glossary On
Versions: 1 2 3 4 5 6 7 8 9 10 11 12 13
000
FTUS43 KJKL 311700
TAFLOZ
TAF
KLOZ 311738Z 3118/0118 VRB03KT P6SM BKN250
     FM010000 VRB03KT P6SM OVC100
     FM010600 VRB03KT P6SM VCSH BKN080 OVC100=

USA.gov is the U.S. government's official web portal to all federal, state and local government web resources and services.